No particular awareness of the weather is required.    There are no Weather-warnings


Meteo18 Weather Cam more information Meteo18 Weather Cam


Thunder radar more information blitzortung!


Rain radar more information rain snow radar


Visit our other weather sites:

Template documentation
and downloads

And another site



Weather Underground History page Text

Daily Summary for July 17, 2017 Units:  Both    English   Metric
« Previous Day
Next Day »
Daily Weekly Monthly Yearly Custom
  High: Low: Average:
Temperature: TemperatureC °F /  -17.8 °C 16.9 °F /  -8.4 °C 24.7 °F /  -4.1 °C
Dew Point: DewpointC °F /  -17.8 °C 14.7 °F /  -9.6 °C 15.7 °F /  -9.1 °C
Humidity: Humidity % 38 % 60 %
Wind Speed: WindSpeedKMH mph /  0 km/h - 3.7 mph /  6 km/h
Wind Gust: WindSpeedGustKMH mph /  0 km/h - -
Wind:- - SE
Pressure: PressurehPa in /  0 hPa 1017.5 in /  34452.6 hPa -
Precipitation: 0.0 in /  0 mm    
Historical Graphs
 
 
Tabular Data for July 17, 2017
Time Temperature Dew Point Pressure Wind Wind Speed Wind Gust Humidity Rainfall Rate (Hourly)
TemperatureC °F /  -17.8 °C DewpointC °F /  -17.8 °C PressurehPa in /  0 hPa Calm     Humidity % HourlyPrecipMM in /  0 mm
00:07 20.4 °F /  -6.4 °C 15.6 °F /  -9.1 °C 1022.6 in /  34625.2 hPa Calm   3.2 mph /  5.1 km/h 74 % 0.0 in /  0 mm
00:12 20.3 °F /  -6.5 °C 15.5 °F /  -9.2 °C 1022.6 in /  34625.2 hPa Calm   3.2 mph /  5.1 km/h 74 % 0.0 in /  0 mm
00:17 20.2 °F /  -6.6 °C 15.6 °F /  -9.1 °C 1022.6 in /  34625.2 hPa Calm   3.2 mph /  5.1 km/h 75 % 0.0 in /  0 mm
00:22 20.1 °F /  -6.6 °C 15.5 °F /  -9.2 °C 1022.6 in /  34625.2 hPa Calm   3.2 mph /  5.1 km/h 75 % 0.0 in /  0 mm
00:27 20.2 °F /  -6.6 °C 15.4 °F /  -9.2 °C 1022.6 in /  34625.2 hPa NNW 1.6 mph /  2.6 km/h 1.6 mph /  2.6 km/h 74 % 0.0 in /  0 mm
00:32 20.5 °F /  -6.4 °C 15.5 °F /  -9.2 °C 1022.6 in /  34625.2 hPa NNW 1.6 mph /  2.6 km/h 1.6 mph /  2.6 km/h 73 % 0.0 in /  0 mm
00:42 20.9 °F /  -6.2 °C 15.4 °F /  -9.2 °C 1022.6 in /  34625.2 hPa Calm   3.2 mph /  5.1 km/h 71 % 0.0 in /  0 mm
00:52 20.8 °F /  -6.2 °C 15.3 °F /  -9.3 °C 1022.2 in /  34611.7 hPa Calm   3.2 mph /  5.1 km/h 71 % 0.0 in /  0 mm
00:57 20.6 °F /  -6.3 °C 15.4 °F /  -9.2 °C 1022.2 in /  34611.7 hPa Calm   1.6 mph /  2.6 km/h 72 % 0.0 in /  0 mm
01:02 20.1 °F /  -6.6 °C 15.5 °F /  -9.2 °C 1022.2 in /  34611.7 hPa WNW 1.6 mph /  2.6 km/h 3.2 mph /  5.1 km/h 75 % 0.0 in /  0 mm
01:07 19.9 °F /  -6.7 °C 15.5 °F /  -9.2 °C 1022.2 in /  34611.7 hPa WNW 1.6 mph /  2.6 km/h 3.2 mph /  5.1 km/h 76 % 0.0 in /  0 mm
01:12 19.8 °F /  -6.8 °C 15.4 °F /  -9.2 °C 1022.2 in /  34611.7 hPa Calm   3.2 mph /  5.1 km/h 76 % 0.0 in /  0 mm
01:17 19.6 °F /  -6.9 °C 15.5 °F /  -9.2 °C 1022.2 in /  34611.7 hPa Calm   3.2 mph /  5.1 km/h 77 % 0.0 in /  0 mm
01:22 19.4 °F /  -7 °C 15.3 °F /  -9.3 °C 1022.2 in /  34611.7 hPa Calm   1.6 mph /  2.6 km/h 77 % 0.0 in /  0 mm
01:27 19.4 °F /  -7 °C 15.5 °F /  -9.2 °C 1022.2 in /  34611.7 hPa Calm   1.6 mph /  2.6 km/h 78 % 0.0 in /  0 mm
01:32 19.4 °F /  -7 °C 15.5 °F /  -9.2 °C 1022.2 in /  34611.7 hPa Calm   1.6 mph /  2.6 km/h 78 % 0.0 in /  0 mm
01:37 19.3 °F /  -7.1 °C 15.4 °F /  -9.2 °C 1022.2 in /  34611.7 hPa Calm   1.6 mph /  2.6 km/h 78 % 0.0 in /  0 mm
01:42 19.2 °F /  -7.1 °C 15.3 °F /  -9.3 °C 1022.2 in /  34611.7 hPa Calm   1.6 mph /  2.6 km/h 78 % 0.0 in /  0 mm
01:47 19.2 °F /  -7.1 °C 15.5 °F /  -9.2 °C 1022.2 in /  34611.7 hPa Calm   1.6 mph /  2.6 km/h 79 % 0.0 in /  0 mm
01:52 19.1 °F /  -7.2 °C 15.4 °F /  -9.2 °C 1022.2 in /  34611.7 hPa Calm   1.6 mph /  2.6 km/h 79 % 0.0 in /  0 mm
01:57 18.9 °F /  -7.3 °C 15.2 °F /  -9.3 °C 1022.2 in /  34611.7 hPa WNW 1.6 mph /  2.6 km/h 1.6 mph /  2.6 km/h 79 % 0.0 in /  0 mm
02:02 18.8 °F /  -7.3 °C 15.3 °F /  -9.3 °C 1021.9 in /  34601.5 hPa WNW 1.6 mph /  2.6 km/h 3.2 mph /  5.1 km/h 80 % 0.0 in /  0 mm
02:07 18.7 °F /  -7.4 °C 15.4 °F /  -9.2 °C 1022.2 in /  34611.7 hPa WNW 1.6 mph /  2.6 km/h 3.2 mph /  5.1 km/h 81 % 0.0 in /  0 mm
02:17 18.5 °F /  -7.5 °C 15.2 °F /  -9.3 °C 1021.9 in /  34601.5 hPa Calm   3.2 mph /  5.1 km/h 81 % 0.0 in /  0 mm
02:22 18.4 °F /  -7.6 °C 15.1 °F /  -9.4 °C 1021.9 in /  34601.5 hPa Calm   1.6 mph /  2.6 km/h 81 % 0.0 in /  0 mm
02:27 18.4 °F /  -7.6 °C 15.3 °F /  -9.3 °C 1021.9 in /  34601.5 hPa Calm   1.6 mph /  2.6 km/h 82 % 0.0 in /  0 mm
02:32 18.4 °F /  -7.6 °C 15.3 °F /  -9.3 °C 1021.9 in /  34601.5 hPa Calm   1.6 mph /  2.6 km/h 82 % 0.0 in /  0 mm
02:37 18.4 °F /  -7.6 °C 15.1 °F /  -9.4 °C 1021.9 in /  34601.5 hPa Calm   1.6 mph /  2.6 km/h 81 % 0.0 in /  0 mm
02:42 18.2 °F /  -7.7 °C 15.1 °F /  -9.4 °C 1021.9 in /  34601.5 hPa Calm   1.6 mph /  2.6 km/h 82 % 0.0 in /  0 mm
02:47 18.1 °F /  -7.7 °C 15.2 °F /  -9.3 °C 1021.9 in /  34601.5 hPa WNW 1.6 mph /  2.6 km/h 1.6 mph /  2.6 km/h 83 % 0.0 in /  0 mm
02:52 17.9 °F /  -7.8 °C 15.0 °F /  -9.4 °C 1021.9 in /  34601.5 hPa WNW 1.6 mph /  2.6 km/h 3.2 mph /  5.1 km/h 83 % 0.0 in /  0 mm
02:57 17.8 °F /  -7.9 °C 15.1 °F /  -9.4 °C 1021.9 in /  34601.5 hPa Calm   3.2 mph /  5.1 km/h 84 % 0.0 in /  0 mm
03:02 17.7 °F /  -7.9 °C 15.0 °F /  -9.4 °C 1021.9 in /  34601.5 hPa Calm   3.2 mph /  5.1 km/h 84 % 0.0 in /  0 mm
03:07 18.0 °F /  -7.8 °C 15.3 °F /  -9.3 °C 1021.6 in /  34591.4 hPa Calm   3.2 mph /  5.1 km/h 84 % 0.0 in /  0 mm
03:12 18.1 °F /  -7.7 °C 15.2 °F /  -9.3 °C 1021.6 in /  34591.4 hPa NW 1.6 mph /  2.6 km/h 1.6 mph /  2.6 km/h 83 % 0.0 in /  0 mm
03:17 17.9 °F /  -7.8 °C 15.2 °F /  -9.3 °C 1021.6 in /  34591.4 hPa WNW 1.6 mph /  2.6 km/h 3.2 mph /  5.1 km/h 84 % 0.0 in /  0 mm
03:22 17.8 °F /  -7.9 °C 15.1 °F /  -9.4 °C 1021.6 in /  34591.4 hPa Calm   3.2 mph /  5.1 km/h 84 % 0.0 in /  0 mm
03:27 17.9 °F /  -7.8 °C 15.2 °F /  -9.3 °C 1021.6 in /  34591.4 hPa Calm   3.2 mph /  5.1 km/h 84 % 0.0 in /  0 mm
03:32 18.1 °F /  -7.7 °C 15.2 °F /  -9.3 °C 1021.6 in /  34591.4 hPa Calm   3.2 mph /  5.1 km/h 83 % 0.0 in /  0 mm
03:37 18.1 °F /  -7.7 °C 15.2 °F /  -9.3 °C 1021.6 in /  34591.4 hPa Calm   1.6 mph /  2.6 km/h 83 % 0.0 in /  0 mm
03:42 17.9 °F /  -7.8 °C 15.0 °F /  -9.4 °C 1021.6 in /  34591.4 hPa North 1.6 mph /  2.6 km/h 1.6 mph /  2.6 km/h 83 % 0.0 in /  0 mm
03:47 18.0 °F /  -7.8 °C 15.3 °F /  -9.3 °C 1021.6 in /  34591.4 hPa NNW 3.2 mph /  5.1 km/h 3.2 mph /  5.1 km/h 84 % 0.0 in /  0 mm
03:52 18.3 °F /  -7.6 °C 15.4 °F /  -9.2 °C 1021.6 in /  34591.4 hPa North 4.8 mph /  7.7 km/h 6.4 mph /  10.3 km/h 83 % 0.0 in /  0 mm
03:57 18.3 °F /  -7.6 °C 15.2 °F /  -9.3 °C 1021.6 in /  34591.4 hPa WNW 4.8 mph /  7.7 km/h 6.4 mph /  10.3 km/h 82 % 0.0 in /  0 mm
04:02 18.5 °F /  -7.5 °C 15.4 °F /  -9.2 °C 1021.6 in /  34591.4 hPa NW 3.2 mph /  5.1 km/h 8.0 mph /  12.9 km/h 82 % 0.0 in /  0 mm
04:07 18.6 °F /  -7.4 °C 15.3 °F /  -9.3 °C 1021.6 in /  34591.4 hPa NW 1.6 mph /  2.6 km/h 8.0 mph /  12.9 km/h 81 % 0.0 in /  0 mm
04:12 18.8 °F /  -7.3 °C 15.3 °F /  -9.3 °C 1021.6 in /  34591.4 hPa NW 1.6 mph /  2.6 km/h 6.4 mph /  10.3 km/h 80 % 0.0 in /  0 mm
04:17 18.8 °F /  -7.3 °C 15.5 °F /  -9.2 °C 1021.6 in /  34591.4 hPa WNW 3.2 mph /  5.1 km/h 4.8 mph /  7.7 km/h 81 % 0.0 in /  0 mm
04:27 18.9 °F /  -7.3 °C 15.4 °F /  -9.2 °C 1021.6 in /  34591.4 hPa Calm   4.8 mph /  7.7 km/h 80 % 0.0 in /  0 mm
04:32 18.7 °F /  -7.4 °C 15.4 °F /  -9.2 °C 1021.6 in /  34591.4 hPa NNW 1.6 mph /  2.6 km/h 4.8 mph /  7.7 km/h 81 % 0.0 in /  0 mm
04:37 18.6 °F /  -7.4 °C 15.3 °F /  -9.3 °C 1021.6 in /  34591.4 hPa Calm   3.2 mph /  5.1 km/h 81 % 0.0 in /  0 mm
04:42 18.6 °F /  -7.4 °C 15.3 °F /  -9.3 °C 1021.6 in /  34591.4 hPa Calm   3.2 mph /  5.1 km/h 81 % 0.0 in /  0 mm
04:47 18.4 °F /  -7.6 °C 15.3 °F /  -9.3 °C 1021.6 in /  34591.4 hPa North 1.6 mph /  2.6 km/h 1.6 mph /  2.6 km/h 82 % 0.0 in /  0 mm
04:52 18.4 °F /  -7.6 °C 15.3 °F /  -9.3 °C 1021.6 in /  34591.4 hPa North 1.6 mph /  2.6 km/h 1.6 mph /  2.6 km/h 82 % 0.0 in /  0 mm
04:57 18.4 °F /  -7.6 °C 15.3 °F /  -9.3 °C 1021.6 in /  34591.4 hPa NNW 1.6 mph /  2.6 km/h 1.6 mph /  2.6 km/h 82 % 0.0 in /  0 mm
05:07 18.3 °F /  -7.6 °C 15.2 °F /  -9.3 °C 1021.6 in /  34591.4 hPa Calm   1.6 mph /  2.6 km/h 82 % 0.0 in /  0 mm
05:12 18.2 °F /  -7.7 °C 15.3 °F /  -9.3 °C 1021.6 in /  34591.4 hPa NW 1.6 mph /  2.6 km/h 1.6 mph /  2.6 km/h 83 % 0.0 in /  0 mm
05:17 18.3 °F /  -7.6 °C 15.5 °F /  -9.2 °C 1021.6 in /  34591.4 hPa Calm   3.2 mph /  5.1 km/h 84 % 0.0 in /  0 mm
05:22 17.9 °F /  -7.8 °C 15.0 °F /  -9.4 °C 1021.6 in /  34591.4 hPa Calm   3.2 mph /  5.1 km/h 83 % 0.0 in /  0 mm
05:32 17.6 °F /  -8 °C 15.0 °F /  -9.4 °C 1021.6 in /  34591.4 hPa WNW 1.6 mph /  2.6 km/h 3.2 mph /  5.1 km/h 85 % 0.0 in /  0 mm
05:37 17.4 °F /  -8.1 °C 15.0 °F /  -9.4 °C 1021.6 in /  34591.4 hPa WNW 1.6 mph /  2.6 km/h 1.6 mph /  2.6 km/h 86 % 0.0 in /  0 mm
05:42 17.4 °F /  -8.1 °C 15.2 °F /  -9.3 °C 1021.6 in /  34591.4 hPa Calm   1.6 mph /  2.6 km/h 87 % 0.0 in /  0 mm
05:52 17.3 °F /  -8.2 °C 14.9 °F /  -9.5 °C 1021.9 in /  34601.5 hPa Calm   1.6 mph /  2.6 km/h 86 % 0.0 in /  0 mm
05:57 17.3 °F /  -8.2 °C 15.1 °F /  -9.4 °C 1021.9 in /  34601.5 hPa Calm   1.6 mph /  2.6 km/h 87 % 0.0 in /  0 mm
06:02 17.3 °F /  -8.2 °C 15.1 °F /  -9.4 °C 1021.9 in /  34601.5 hPa Calm   1.6 mph /  2.6 km/h 87 % 0.0 in /  0 mm
06:12 17.2 °F /  -8.2 °C 15.2 °F /  -9.3 °C 1021.9 in /  34601.5 hPa Calm   1.6 mph /  2.6 km/h 88 % 0.0 in /  0 mm
06:17 17.3 °F /  -8.2 °C 15.3 °F /  -9.3 °C 1021.9 in /  34601.5 hPa Calm   1.6 mph /  2.6 km/h 88 % 0.0 in /  0 mm
06:22 17.4 °F /  -8.1 °C 15.4 °F /  -9.2 °C 1021.9 in /  34601.5 hPa WNW 1.6 mph /  2.6 km/h 1.6 mph /  2.6 km/h 88 % 0.0 in /  0 mm
06:32 17.4 °F /  -8.1 °C 15.0 °F /  -9.4 °C 1021.9 in /  34601.5 hPa Calm   1.6 mph /  2.6 km/h 86 % 0.0 in /  0 mm
06:42 16.9 °F /  -8.4 °C 15.1 °F /  -9.4 °C 1021.9 in /  34601.5 hPa Calm   1.6 mph /  2.6 km/h 89 % 0.0 in /  0 mm
06:47 17.0 °F /  -8.3 °C 15.2 °F /  -9.3 °C 1021.9 in /  34601.5 hPa Calm   1.6 mph /  2.6 km/h 89 % 0.0 in /  0 mm
06:52 17.1 °F /  -8.3 °C 15.3 °F /  -9.3 °C 1021.9 in /  34601.5 hPa Calm   1.6 mph /  2.6 km/h 89 % 0.0 in /  0 mm
07:02 17.6 °F /  -8 °C 15.6 °F /  -9.1 °C 1021.9 in /  34601.5 hPa Calm     88 % 0.0 in /  0 mm
07:12 18.1 °F /  -7.7 °C 15.9 °F /  -8.9 °C 1021.9 in /  34601.5 hPa Calm     87 % 0.0 in /  0 mm
07:17 18.4 °F /  -7.6 °C 16.2 °F /  -8.8 °C 1021.9 in /  34601.5 hPa Calm     87 % 0.0 in /  0 mm
07:27 20.0 °F /  -6.7 °C 17.2 °F /  -8.2 °C 1021.9 in /  34601.5 hPa Calm     84 % 0.0 in /  0 mm
07:32 20.3 °F /  -6.5 °C 16.7 °F /  -8.5 °C 1021.9 in /  34601.5 hPa Calm     80 % 0.0 in /  0 mm
07:42 20.5 °F /  -6.4 °C 16.7 °F /  -8.5 °C 1021.9 in /  34601.5 hPa Calm     79 % 0.0 in /  0 mm
07:47 20.5 °F /  -6.4 °C 16.5 °F /  -8.6 °C 1021.9 in /  34601.5 hPa NNE 1.6 mph /  2.6 km/h 3.2 mph /  5.1 km/h 78 % 0.0 in /  0 mm
07:52 20.6 °F /  -6.3 °C 16.8 °F /  -8.4 °C 1021.9 in /  34601.5 hPa NNE 3.2 mph /  5.1 km/h 4.8 mph /  7.7 km/h 79 % 0.0 in /  0 mm
07:57 20.7 °F /  -6.3 °C 16.9 °F /  -8.4 °C 1021.9 in /  34601.5 hPa Calm   4.8 mph /  7.7 km/h 79 % 0.0 in /  0 mm
08:02 21.1 °F /  -6.1 °C 17.1 °F /  -8.3 °C 1021.9 in /  34601.5 hPa NNE 3.2 mph /  5.1 km/h 4.8 mph /  7.7 km/h 78 % 0.0 in /  0 mm
08:12 21.4 °F /  -5.9 °C 17.0 °F /  -8.3 °C 1022.2 in /  34611.7 hPa NNE 1.6 mph /  2.6 km/h 3.2 mph /  5.1 km/h 76 % 0.0 in /  0 mm
08:17 21.6 °F /  -5.8 °C 17.2 °F /  -8.2 °C 1022.2 in /  34611.7 hPa Calm   3.2 mph /  5.1 km/h 76 % 0.0 in /  0 mm
08:22 21.9 °F /  -5.6 °C 17.3 °F /  -8.2 °C 1022.2 in /  34611.7 hPa ENE 1.6 mph /  2.6 km/h 3.2 mph /  5.1 km/h 75 % 0.0 in /  0 mm
08:32 21.9 °F /  -5.6 °C 17.3 °F /  -8.2 °C 1022.2 in /  34611.7 hPa ENE 1.6 mph /  2.6 km/h 3.2 mph /  5.1 km/h 75 % 0.0 in /  0 mm
08:42 22.3 °F /  -5.4 °C 17.7 °F /  -7.9 °C 1021.9 in /  34601.5 hPa ENE 1.6 mph /  2.6 km/h 4.8 mph /  7.7 km/h 75 % 0.0 in /  0 mm
08:47 22.5 °F /  -5.3 °C 17.6 °F /  -8 °C 1021.9 in /  34601.5 hPa NE 3.2 mph /  5.1 km/h 4.8 mph /  7.7 km/h 74 % 0.0 in /  0 mm
08:52 22.7 °F /  -5.2 °C 17.2 °F /  -8.2 °C 1022.2 in /  34611.7 hPa East 3.2 mph /  5.1 km/h 4.8 mph /  7.7 km/h 71 % 0.0 in /  0 mm
08:57 22.9 °F /  -5.1 °C 17.4 °F /  -8.1 °C 1021.9 in /  34601.5 hPa Calm   4.8 mph /  7.7 km/h 71 % 0.0 in /  0 mm
09:02 23.2 °F /  -4.9 °C 17.4 °F /  -8.1 °C 1021.9 in /  34601.5 hPa North 3.2 mph /  5.1 km/h 4.8 mph /  7.7 km/h 70 % 0.0 in /  0 mm
09:12 24.1 °F /  -4.4 °C 17.6 °F /  -8 °C 1021.9 in /  34601.5 hPa Calm   4.8 mph /  7.7 km/h 67 % 0.0 in /  0 mm
09:17 24.5 °F /  -4.2 °C 17.2 °F /  -8.2 °C 1021.9 in /  34601.5 hPa SW 3.2 mph /  5.1 km/h 3.2 mph /  5.1 km/h 64 % 0.0 in /  0 mm
09:22 24.6 °F /  -4.1 °C 17.6 °F /  -8 °C 1021.9 in /  34601.5 hPa SSW 4.8 mph /  7.7 km/h 4.8 mph /  7.7 km/h 65 % 0.0 in /  0 mm
09:32 24.7 °F /  -4.1 °C 17.2 °F /  -8.2 °C 1021.9 in /  34601.5 hPa SE 1.6 mph /  2.6 km/h 3.2 mph /  5.1 km/h 63 % 0.0 in /  0 mm
09:42 25.9 °F /  -3.4 °C 17.5 °F /  -8.1 °C 1021.9 in /  34601.5 hPa Calm   4.8 mph /  7.7 km/h 60 % 0.0 in /  0 mm
09:52 26.1 °F /  -3.3 °C 17.2 °F /  -8.2 °C 1021.9 in /  34601.5 hPa SW 6.4 mph /  10.3 km/h 6.4 mph /  10.3 km/h 58 % 0.0 in /  0 mm
09:57 25.8 °F /  -3.4 °C 16.9 °F /  -8.4 °C 1021.9 in /  34601.5 hPa East 3.2 mph /  5.1 km/h 6.4 mph /  10.3 km/h 58 % 0.0 in /  0 mm
10:02 26.1 °F /  -3.3 °C 17.2 °F /  -8.2 °C 1021.9 in /  34601.5 hPa Calm   6.4 mph /  10.3 km/h 58 % 0.0 in /  0 mm
10:12 26.3 °F /  -3.2 °C 16.8 °F /  -8.4 °C 1021.9 in /  34601.5 hPa Calm   6.4 mph /  10.3 km/h 56 % 0.0 in /  0 mm
10:17 26.6 °F /  -3 °C 16.8 °F /  -8.4 °C 1021.6 in /  34591.4 hPa WSW 3.2 mph /  5.1 km/h 9.7 mph /  15.6 km/h 55 % 0.0 in /  0 mm
10:22 26.6 °F /  -3 °C 17.1 °F /  -8.3 °C 1021.6 in /  34591.4 hPa Calm   9.7 mph /  15.6 km/h 56 % 0.0 in /  0 mm
10:32 26.8 °F /  -2.9 °C 17.0 °F /  -8.3 °C 1021.6 in /  34591.4 hPa East 6.4 mph /  10.3 km/h 6.4 mph /  10.3 km/h 55 % 0.0 in /  0 mm
10:42 26.6 °F /  -3 °C 17.1 °F /  -8.3 °C 1021.6 in /  34591.4 hPa SE 4.8 mph /  7.7 km/h 9.7 mph /  15.6 km/h 56 % 0.0 in /  0 mm
10:52 26.7 °F /  -2.9 °C 17.5 °F /  -8.1 °C 1021.6 in /  34591.4 hPa ENE 3.2 mph /  5.1 km/h 9.7 mph /  15.6 km/h 57 % 0.0 in /  0 mm
10:57 26.8 °F /  -2.9 °C 16.7 °F /  -8.5 °C 1021.6 in /  34591.4 hPa ENE 11.3 mph /  18.2 km/h 12.9 mph /  20.8 km/h 54 % 0.0 in /  0 mm
11:02 26.8 °F /  -2.9 °C 17.3 °F /  -8.2 °C 1021.6 in /  34591.4 hPa East 3.2 mph /  5.1 km/h 12.9 mph /  20.8 km/h 56 % 0.0 in /  0 mm
11:12 26.9 °F /  -2.8 °C 17.1 °F /  -8.3 °C 1021.6 in /  34591.4 hPa East 4.8 mph /  7.7 km/h 14.5 mph /  23.3 km/h 55 % 0.0 in /  0 mm
11:17 27.4 °F /  -2.6 °C 17.3 °F /  -8.2 °C 1021.6 in /  34591.4 hPa ENE 11.3 mph /  18.2 km/h 14.5 mph /  23.3 km/h 54 % 0.0 in /  0 mm
11:22 27.6 °F /  -2.4 °C 17.2 °F /  -8.2 °C 1021.6 in /  34591.4 hPa Calm   12.9 mph /  20.8 km/h 53 % 0.0 in /  0 mm
11:32 27.7 °F /  -2.4 °C 16.9 °F /  -8.4 °C 1021.2 in /  34577.8 hPa SE 4.8 mph /  7.7 km/h 11.3 mph /  18.2 km/h 52 % 0.0 in /  0 mm
11:42 27.8 °F /  -2.3 °C 17.3 °F /  -8.2 °C 1021.2 in /  34577.8 hPa ENE 9.7 mph /  15.6 km/h 11.3 mph /  18.2 km/h 53 % 0.0 in /  0 mm
11:47 27.8 °F /  -2.3 °C 17.0 °F /  -8.3 °C 1021.2 in /  34577.8 hPa East 8.0 mph /  12.9 km/h 14.5 mph /  23.3 km/h 52 % 0.0 in /  0 mm
11:52 27.7 °F /  -2.4 °C 16.9 °F /  -8.4 °C 1021.2 in /  34577.8 hPa NE 9.7 mph /  15.6 km/h 20.9 mph /  33.6 km/h 52 % 0.0 in /  0 mm
11:57 27.7 °F /  -2.4 °C 16.6 °F /  -8.6 °C 1021.2 in /  34577.8 hPa ENE 3.2 mph /  5.1 km/h 20.9 mph /  33.6 km/h 51 % 0.0 in /  0 mm
12:02 27.7 °F /  -2.4 °C 16.9 °F /  -8.4 °C 1021.2 in /  34577.8 hPa NE 8.0 mph /  12.9 km/h 25.7 mph /  41.4 km/h 52 % 0.0 in /  0 mm
12:12 27.9 °F /  -2.3 °C 16.8 °F /  -8.4 °C 1021.2 in /  34577.8 hPa ENE 11.3 mph /  18.2 km/h 25.7 mph /  41.4 km/h 51 % 0.0 in /  0 mm
12:17 28.1 °F /  -2.2 °C 17.0 °F /  -8.3 °C 1020.9 in /  34567.7 hPa NE 4.8 mph /  7.7 km/h 14.5 mph /  23.3 km/h 51 % 0.0 in /  0 mm
12:22 27.8 °F /  -2.3 °C 17.0 °F /  -8.3 °C 1020.9 in /  34567.7 hPa NE 4.8 mph /  7.7 km/h 14.5 mph /  23.3 km/h 52 % 0.0 in /  0 mm
12:32 28.1 °F /  -2.2 °C 17.3 °F /  -8.2 °C 1020.9 in /  34567.7 hPa NE 9.7 mph /  15.6 km/h 16.1 mph /  25.9 km/h 52 % 0.0 in /  0 mm
12:37 28.3 °F /  -2.1 °C 16.9 °F /  -8.4 °C 1020.9 in /  34567.7 hPa ENE 11.3 mph /  18.2 km/h 16.1 mph /  25.9 km/h 50 % 0.0 in /  0 mm
12:42 28.0 °F /  -2.2 °C 16.9 °F /  -8.4 °C 1020.9 in /  34567.7 hPa ENE 8.0 mph /  12.9 km/h 16.1 mph /  25.9 km/h 51 % 0.0 in /  0 mm
12:47 28.2 °F /  -2.1 °C 17.4 °F /  -8.1 °C 1020.9 in /  34567.7 hPa SSE 1.6 mph /  2.6 km/h 17.7 mph /  28.5 km/h 52 % 0.0 in /  0 mm
12:52 28.7 °F /  -1.8 °C 16.6 °F /  -8.6 °C 1020.9 in /  34567.7 hPa ENE 12.9 mph /  20.8 km/h 17.7 mph /  28.5 km/h 48 % 0.0 in /  0 mm
12:57 28.9 °F /  -1.7 °C 16.8 °F /  -8.4 °C 1020.9 in /  34567.7 hPa ESE 8.0 mph /  12.9 km/h 17.7 mph /  28.5 km/h 48 % 0.0 in /  0 mm
13:02 28.8 °F /  -1.8 °C 16.7 °F /  -8.5 °C 1020.5 in /  34554.1 hPa ESE 1.6 mph /  2.6 km/h 17.7 mph /  28.5 km/h 48 % 0.0 in /  0 mm
13:12 28.5 °F /  -1.9 °C 17.1 °F /  -8.3 °C 1020.5 in /  34554.1 hPa NE 11.3 mph /  18.2 km/h 19.3 mph /  31.1 km/h 50 % 0.0 in /  0 mm
13:17 28.7 °F /  -1.8 °C 16.6 °F /  -8.6 °C 1020.5 in /  34554.1 hPa ENE 16.1 mph /  25.9 km/h 17.7 mph /  28.5 km/h 48 % 0.0 in /  0 mm
13:22 29.1 °F /  -1.6 °C 16.6 °F /  -8.6 °C 1020.5 in /  34554.1 hPa NE 16.1 mph /  25.9 km/h 17.7 mph /  28.5 km/h 47 % 0.0 in /  0 mm
13:32 28.4 °F /  -2 °C 16.0 °F /  -8.9 °C 1020.5 in /  34554.1 hPa NE 9.7 mph /  15.6 km/h 17.7 mph /  28.5 km/h 47 % 0.0 in /  0 mm
13:37 28.7 °F /  -1.8 °C 16.3 °F /  -8.7 °C 1020.2 in /  34544 hPa NNE 3.2 mph /  5.1 km/h 17.7 mph /  28.5 km/h 47 % 0.0 in /  0 mm
13:42 28.7 °F /  -1.8 °C 15.9 °F /  -8.9 °C 1020.5 in /  34554.1 hPa NE 9.7 mph /  15.6 km/h 20.9 mph /  33.6 km/h 46 % 0.0 in /  0 mm
13:47 28.4 °F /  -2 °C 15.7 °F /  -9.1 °C 1020.2 in /  34544 hPa NE 6.4 mph /  10.3 km/h 20.9 mph /  33.6 km/h 46 % 0.0 in /  0 mm
13:57 29.2 °F /  -1.6 °C 16.0 °F /  -8.9 °C 1020.2 in /  34544 hPa ENE 14.5 mph /  23.3 km/h 19.3 mph /  31.1 km/h 45 % 0.0 in /  0 mm
14:02 29.1 °F /  -1.6 °C 16.0 °F /  -8.9 °C 1020.2 in /  34544 hPa NNE 4.8 mph /  7.7 km/h 19.3 mph /  31.1 km/h 45 % 0.0 in /  0 mm
14:07 29.4 °F /  -1.4 °C 15.9 °F /  -8.9 °C 1020.2 in /  34544 hPa ESE 16.1 mph /  25.9 km/h 19.3 mph /  31.1 km/h 44 % 0.0 in /  0 mm
14:12 29.6 °F /  -1.3 °C 15.3 °F /  -9.3 °C 1020.2 in /  34544 hPa ENE 11.3 mph /  18.2 km/h 20.9 mph /  33.6 km/h 42 % 0.0 in /  0 mm
14:17 29.7 °F /  -1.3 °C 15.8 °F /  -9 °C 1020.2 in /  34544 hPa ENE 8.0 mph /  12.9 km/h 20.9 mph /  33.6 km/h 43 % 0.0 in /  0 mm
14:22 29.4 °F /  -1.4 °C 14.8 °F /  -9.6 °C 1019.9 in /  34533.8 hPa ENE 1.6 mph /  2.6 km/h 20.9 mph /  33.6 km/h 41 % 0.0 in /  0 mm
14:27 29.6 °F /  -1.3 °C 15.7 °F /  -9.1 °C 1019.9 in /  34533.8 hPa East 9.7 mph /  15.6 km/h 19.3 mph /  31.1 km/h 43 % 0.0 in /  0 mm
14:32 29.9 °F /  -1.2 °C 16.0 °F /  -8.9 °C 1019.9 in /  34533.8 hPa ENE 14.5 mph /  23.3 km/h 19.3 mph /  31.1 km/h 43 % 0.0 in /  0 mm
14:37 29.8 °F /  -1.2 °C 15.9 °F /  -8.9 °C 1019.9 in /  34533.8 hPa ESE 3.2 mph /  5.1 km/h 19.3 mph /  31.1 km/h 43 % 0.0 in /  0 mm
14:42 29.8 °F /  -1.2 °C 15.9 °F /  -8.9 °C 1019.9 in /  34533.8 hPa ENE 9.7 mph /  15.6 km/h 20.9 mph /  33.6 km/h 43 % 0.0 in /  0 mm
14:47 29.8 °F /  -1.2 °C 15.5 °F /  -9.2 °C 1019.9 in /  34533.8 hPa ENE 4.8 mph /  7.7 km/h 20.9 mph /  33.6 km/h 42 % 0.0 in /  0 mm
14:52 29.8 °F /  -1.2 °C 15.9 °F /  -8.9 °C 1019.9 in /  34533.8 hPa East 3.2 mph /  5.1 km/h 20.9 mph /  33.6 km/h 43 % 0.0 in /  0 mm
14:57 30.2 °F /  -1 °C 15.5 °F /  -9.2 °C 1019.9 in /  34533.8 hPa SE 8.0 mph /  12.9 km/h 16.1 mph /  25.9 km/h 41 % 0.0 in /  0 mm
15:02 30.7 °F /  -0.7 °C 15.5 °F /  -9.2 °C 1019.5 in /  34520.3 hPa ENE 12.9 mph /  20.8 km/h 12.9 mph /  20.8 km/h 40 % 0.0 in /  0 mm
15:12 30.7 °F /  -0.7 °C 15.2 °F /  -9.3 °C 1019.5 in /  34520.3 hPa East 9.7 mph /  15.6 km/h 24.1 mph /  38.8 km/h 39 % 0.0 in /  0 mm
15:17 30.6 °F /  -0.8 °C 14.7 °F /  -9.6 °C 1019.5 in /  34520.3 hPa ENE 11.3 mph /  18.2 km/h 24.1 mph /  38.8 km/h 38 % 0.0 in /  0 mm
15:22 30.4 °F /  -0.9 °C 14.9 °F /  -9.5 °C 1019.5 in /  34520.3 hPa NE 4.8 mph /  7.7 km/h 27.4 mph /  44.1 km/h 39 % 0.0 in /  0 mm
15:32 30.3 °F /  -0.9 °C 14.8 °F /  -9.6 °C 1019.5 in /  34520.3 hPa ENE 11.3 mph /  18.2 km/h 22.5 mph /  36.2 km/h 39 % 0.0 in /  0 mm
15:37 30.3 °F /  -0.9 °C 14.8 °F /  -9.6 °C 1019.2 in /  34510.1 hPa ENE 11.3 mph /  18.2 km/h 22.5 mph /  36.2 km/h 39 % 0.0 in /  0 mm
15:42 30.5 °F /  -0.8 °C 15.4 °F /  -9.2 °C 1019.2 in /  34510.1 hPa East 6.4 mph /  10.3 km/h 22.5 mph /  36.2 km/h 40 % 0.0 in /  0 mm
15:47 30.7 °F /  -0.7 °C 14.8 °F /  -9.6 °C 1019.2 in /  34510.1 hPa East 6.4 mph /  10.3 km/h 19.3 mph /  31.1 km/h 38 % 0.0 in /  0 mm
15:52 30.8 °F /  -0.7 °C 14.8 °F /  -9.6 °C 1019.2 in /  34510.1 hPa ENE 16.1 mph /  25.9 km/h 19.3 mph /  31.1 km/h 38 % 0.0 in /  0 mm
15:57 30.8 °F /  -0.7 °C 14.8 °F /  -9.6 °C 1019.2 in /  34510.1 hPa ENE 6.4 mph /  10.3 km/h 19.3 mph /  31.1 km/h 38 % 0.0 in /  0 mm
16:02 30.7 °F /  -0.7 °C 15.2 °F /  -9.3 °C 1019.2 in /  34510.1 hPa ENE 3.2 mph /  5.1 km/h 20.9 mph /  33.6 km/h 39 % 0.0 in /  0 mm
16:12 31.5 °F /  -0.3 °C 15.5 °F /  -9.2 °C 1018.8 in /  34496.6 hPa ENE 11.3 mph /  18.2 km/h 16.1 mph /  25.9 km/h 38 % 0.0 in /  0 mm
16:17 30.7 °F /  -0.7 °C 15.2 °F /  -9.3 °C 1018.8 in /  34496.6 hPa NE 9.7 mph /  15.6 km/h 17.7 mph /  28.5 km/h 39 % 0.0 in /  0 mm
16:22 30.2 °F /  -1 °C 15.1 °F /  -9.4 °C 1018.8 in /  34496.6 hPa ESE 4.8 mph /  7.7 km/h 17.7 mph /  28.5 km/h 40 % 0.0 in /  0 mm
16:32 30.7 °F /  -0.7 °C 15.2 °F /  -9.3 °C 1018.8 in /  34496.6 hPa ENE 9.7 mph /  15.6 km/h 14.5 mph /  23.3 km/h 39 % 0.0 in /  0 mm
16:37 30.5 °F /  -0.8 °C 15.4 °F /  -9.2 °C 1018.8 in /  34496.6 hPa NE 6.4 mph /  10.3 km/h 14.5 mph /  23.3 km/h 40 % 0.0 in /  0 mm
16:42 31.0 °F /  -0.6 °C 15.8 °F /  -9 °C 1018.8 in /  34496.6 hPa NE 17.7 mph /  28.5 km/h 17.7 mph /  28.5 km/h 40 % 0.0 in /  0 mm
16:47 30.6 °F /  -0.8 °C 15.5 °F /  -9.2 °C 1018.8 in /  34496.6 hPa East 8.0 mph /  12.9 km/h 19.3 mph /  31.1 km/h 40 % 0.0 in /  0 mm
16:52 29.9 °F /  -1.2 °C 15.6 °F /  -9.1 °C 1018.8 in /  34496.6 hPa NNE 11.3 mph /  18.2 km/h 19.3 mph /  31.1 km/h 42 % 0.0 in /  0 mm
16:57 29.8 °F /  -1.2 °C 15.1 °F /  -9.4 °C 1018.8 in /  34496.6 hPa East 3.2 mph /  5.1 km/h 19.3 mph /  31.1 km/h 41 % 0.0 in /  0 mm
17:02 30.3 °F /  -0.9 °C 15.6 °F /  -9.1 °C 1018.8 in /  34496.6 hPa ESE 4.8 mph /  7.7 km/h 17.7 mph /  28.5 km/h 41 % 0.0 in /  0 mm
17:12 31.3 °F /  -0.4 °C 16.1 °F /  -8.8 °C 1018.5 in /  34486.4 hPa SE 6.4 mph /  10.3 km/h 9.7 mph /  15.6 km/h 40 % 0.0 in /  0 mm
17:17 31.2 °F /  -0.4 °C 16.0 °F /  -8.9 °C 1018.5 in /  34486.4 hPa East 9.7 mph /  15.6 km/h 20.9 mph /  33.6 km/h 40 % 0.0 in /  0 mm
17:22 31.3 °F /  -0.4 °C 16.1 °F /  -8.8 °C 1018.5 in /  34486.4 hPa ESE 6.4 mph /  10.3 km/h 20.9 mph /  33.6 km/h 40 % 0.0 in /  0 mm
17:27 31.1 °F /  -0.5 °C 15.5 °F /  -9.2 °C 1018.2 in /  34476.3 hPa ESE 8.0 mph /  12.9 km/h 20.9 mph /  33.6 km/h 39 % 0.0 in /  0 mm
17:32 31.1 °F /  -0.5 °C 15.9 °F /  -8.9 °C 1018.2 in /  34476.3 hPa ENE 11.3 mph /  18.2 km/h 16.1 mph /  25.9 km/h 40 % 0.0 in /  0 mm
17:37 31.2 °F /  -0.4 °C 16.0 °F /  -8.9 °C 1018.2 in /  34476.3 hPa ENE 3.2 mph /  5.1 km/h 16.1 mph /  25.9 km/h 40 % 0.0 in /  0 mm
17:42 31.3 °F /  -0.4 °C 16.1 °F /  -8.8 °C 1018.2 in /  34476.3 hPa ENE 6.4 mph /  10.3 km/h 16.1 mph /  25.9 km/h 40 % 0.0 in /  0 mm
17:47 31.2 °F /  -0.4 °C 15.6 °F /  -9.1 °C 1018.2 in /  34476.3 hPa ENE 8.0 mph /  12.9 km/h 22.5 mph /  36.2 km/h 39 % 0.0 in /  0 mm
17:52 30.6 °F /  -0.8 °C 15.1 °F /  -9.4 °C 1018.2 in /  34476.3 hPa ENE 14.5 mph /  23.3 km/h 24.1 mph /  38.8 km/h 39 % 0.0 in /  0 mm
17:57 30.4 °F /  -0.9 °C 15.7 °F /  -9.1 °C 1018.2 in /  34476.3 hPa ENE 11.3 mph /  18.2 km/h 24.1 mph /  38.8 km/h 41 % 0.0 in /  0 mm
18:02 30.8 °F /  -0.7 °C 15.6 °F /  -9.1 °C 1018.2 in /  34476.3 hPa ENE 11.3 mph /  18.2 km/h 24.1 mph /  38.8 km/h 40 % 0.0 in /  0 mm
18:07 30.7 °F /  -0.7 °C 15.9 °F /  -8.9 °C 1017.8 in /  34462.7 hPa East 1.6 mph /  2.6 km/h 19.3 mph /  31.1 km/h 41 % 0.0 in /  0 mm
18:12 31.0 °F /  -0.6 °C 15.8 °F /  -9 °C 1017.8 in /  34462.7 hPa ENE 3.2 mph /  5.1 km/h 19.3 mph /  31.1 km/h 40 % 0.0 in /  0 mm
18:17 31.1 °F /  -0.5 °C 15.5 °F /  -9.2 °C 1017.8 in /  34462.7 hPa ESE 4.8 mph /  7.7 km/h 19.3 mph /  31.1 km/h 39 % 0.0 in /  0 mm
18:22 30.9 °F /  -0.6 °C 15.3 °F /  -9.3 °C 1017.8 in /  34462.7 hPa SSE 6.4 mph /  10.3 km/h 19.3 mph /  31.1 km/h 39 % 0.0 in /  0 mm
18:27 30.9 °F /  -0.6 °C 15.7 °F /  -9.1 °C 1017.8 in /  34462.7 hPa ENE 6.4 mph /  10.3 km/h 19.3 mph /  31.1 km/h 40 % 0.0 in /  0 mm
18:32 31.3 °F /  -0.4 °C 15.7 °F /  -9.1 °C 1017.8 in /  34462.7 hPa East 3.2 mph /  5.1 km/h 14.5 mph /  23.3 km/h 39 % 0.0 in /  0 mm
18:42 30.9 °F /  -0.6 °C 15.3 °F /  -9.3 °C 1017.8 in /  34462.7 hPa ENE 4.8 mph /  7.7 km/h 19.3 mph /  31.1 km/h 39 % 0.0 in /  0 mm
18:47 30.7 °F /  -0.7 °C 15.2 °F /  -9.3 °C 1017.8 in /  34462.7 hPa NE 6.4 mph /  10.3 km/h 24.1 mph /  38.8 km/h 39 % 0.0 in /  0 mm
18:52 30.4 °F /  -0.9 °C 15.3 °F /  -9.3 °C 1017.8 in /  34462.7 hPa ENE 12.9 mph /  20.8 km/h 24.1 mph /  38.8 km/h 40 % 0.0 in /  0 mm
18:57 30.3 °F /  -0.9 °C 15.6 °F /  -9.1 °C 1017.8 in /  34462.7 hPa ENE 9.7 mph /  15.6 km/h 24.1 mph /  38.8 km/h 41 % 0.0 in /  0 mm
19:02 30.3 °F /  -0.9 °C 15.2 °F /  -9.3 °C 1017.8 in /  34462.7 hPa ENE 6.4 mph /  10.3 km/h 19.3 mph /  31.1 km/h 40 % 0.0 in /  0 mm
19:07 30.5 °F /  -0.8 °C 15.4 °F /  -9.2 °C 1017.8 in /  34462.7 hPa East 8.0 mph /  12.9 km/h 19.3 mph /  31.1 km/h 40 % 0.0 in /  0 mm
19:12 30.4 °F /  -0.9 °C 15.3 °F /  -9.3 °C 1017.8 in /  34462.7 hPa ENE 4.8 mph /  7.7 km/h 19.3 mph /  31.1 km/h 40 % 0.0 in /  0 mm
19:22 30.5 °F /  -0.8 °C 15.4 °F /  -9.2 °C 1017.5 in /  34452.6 hPa ENE 4.8 mph /  7.7 km/h 16.1 mph /  25.9 km/h 40 % 0.0 in /  0 mm
19:32 30.6 °F /  -0.8 °C 15.5 °F /  -9.2 °C 1017.5 in /  34452.6 hPa ESE 6.4 mph /  10.3 km/h 11.3 mph /  18.2 km/h 40 % 0.0 in /  0 mm
19:37 30.8 °F /  -0.7 °C 15.6 °F /  -9.1 °C 1017.5 in /  34452.6 hPa ESE 1.6 mph /  2.6 km/h 11.3 mph /  18.2 km/h 40 % 0.0 in /  0 mm
19:42 30.7 °F /  -0.7 °C 15.2 °F /  -9.3 °C 1017.5 in /  34452.6 hPa East 6.4 mph /  10.3 km/h 9.7 mph /  15.6 km/h 39 % 0.0 in /  0 mm
19:47 30.5 °F /  -0.8 °C 15.4 °F /  -9.2 °C 1017.5 in /  34452.6 hPa East 8.0 mph /  12.9 km/h 19.3 mph /  31.1 km/h 40 % 0.0 in /  0 mm
19:52 30.4 °F /  -0.9 °C 15.3 °F /  -9.3 °C 1017.5 in /  34452.6 hPa East 1.6 mph /  2.6 km/h 19.3 mph /  31.1 km/h 40 % 0.0 in /  0 mm
19:57 30.4 °F /  -0.9 °C 15.3 °F /  -9.3 °C 1017.5 in /  34452.6 hPa East 11.3 mph /  18.2 km/h 19.3 mph /  31.1 km/h 40 % 0.0 in /  0 mm
20:02 30.3 °F /  -0.9 °C 15.2 °F /  -9.3 °C 1017.5 in /  34452.6 hPa East 1.6 mph /  2.6 km/h 16.1 mph /  25.9 km/h 40 % 0.0 in /  0 mm
20:12 30.4 °F /  -0.9 °C 15.3 °F /  -9.3 °C 1017.5 in /  34452.6 hPa ENE 3.2 mph /  5.1 km/h 16.1 mph /  25.9 km/h 40 % 0.0 in /  0 mm
20:17 30.1 °F /  -1.1 °C 15.0 °F /  -9.4 °C 1017.5 in /  34452.6 hPa East 8.0 mph /  12.9 km/h 11.3 mph /  18.2 km/h 40 % 0.0 in /  0 mm
20:22 29.9 °F /  -1.2 °C 15.2 °F /  -9.3 °C 1017.5 in /  34452.6 hPa East 4.8 mph /  7.7 km/h 11.3 mph /  18.2 km/h 41 % 0.0 in /  0 mm
20:27 29.9 °F /  -1.2 °C 15.2 °F /  -9.3 °C 1017.5 in /  34452.6 hPa East 1.6 mph /  2.6 km/h 11.3 mph /  18.2 km/h 41 % 0.0 in /  0 mm
20:32 29.9 °F /  -1.2 °C 15.2 °F /  -9.3 °C 1017.5 in /  34452.6 hPa East 4.8 mph /  7.7 km/h 11.3 mph /  18.2 km/h 41 % 0.0 in /  0 mm
20:37 29.8 °F /  -1.2 °C 15.1 °F /  -9.4 °C 1017.5 in /  34452.6 hPa ESE 1.6 mph /  2.6 km/h 11.3 mph /  18.2 km/h 41 % 0.0 in /  0 mm
20:42 29.7 °F /  -1.3 °C 15.0 °F /  -9.4 °C 1017.5 in /  34452.6 hPa East 3.2 mph /  5.1 km/h 9.7 mph /  15.6 km/h 41 % 0.0 in /  0 mm
20:47 29.6 °F /  -1.3 °C 15.3 °F /  -9.3 °C 1017.5 in /  34452.6 hPa NE 1.6 mph /  2.6 km/h 9.7 mph /  15.6 km/h 42 % 0.0 in /  0 mm
20:52 29.4 °F /  -1.4 °C 15.1 °F /  -9.4 °C 1017.5 in /  34452.6 hPa East 1.6 mph /  2.6 km/h 8.0 mph /  12.9 km/h 42 % 0.0 in /  0 mm
20:57 29.2 °F /  -1.6 °C 15.3 °F /  -9.3 °C 1017.5 in /  34452.6 hPa East 1.6 mph /  2.6 km/h 8.0 mph /  12.9 km/h 43 % 0.0 in /  0 mm
21:02 29.1 °F /  -1.6 °C 15.2 °F /  -9.3 °C 1017.5 in /  34452.6 hPa East 1.6 mph /  2.6 km/h 6.4 mph /  10.3 km/h 43 % 0.0 in /  0 mm
21:07 28.8 °F /  -1.8 °C 15.3 °F /  -9.3 °C 1017.5 in /  34452.6 hPa Calm   6.4 mph /  10.3 km/h 44 % 0.0 in /  0 mm
21:12 28.5 °F /  -1.9 °C 15.4 °F /  -9.2 °C 1017.8 in /  34462.7 hPa East 1.6 mph /  2.6 km/h 3.2 mph /  5.1 km/h 45 % 0.0 in /  0 mm
21:17 28.2 °F /  -2.1 °C 15.5 °F /  -9.2 °C 1017.8 in /  34462.7 hPa Calm   3.2 mph /  5.1 km/h 46 % 0.0 in /  0 mm
21:22 27.9 °F /  -2.3 °C 15.5 °F /  -9.2 °C 1017.8 in /  34462.7 hPa Calm   3.2 mph /  5.1 km/h 47 % 0.0 in /  0 mm
21:32 27.3 °F /  -2.6 °C 15.6 °F /  -9.1 °C 1017.5 in /  34452.6 hPa Calm   1.6 mph /  2.6 km/h 49 % 0.0 in /  0 mm
21:37 27.1 °F /  -2.7 °C 15.8 °F /  -9 °C 1017.8 in /  34462.7 hPa Calm   1.6 mph /  2.6 km/h 50 % 0.0 in /  0 mm
21:42 26.8 °F /  -2.9 °C 16.1 °F /  -8.8 °C 1017.8 in /  34462.7 hPa Calm   1.6 mph /  2.6 km/h 52 % 0.0 in /  0 mm
21:52 26.1 °F /  -3.3 °C 15.8 °F /  -9 °C 1017.8 in /  34462.7 hPa Calm   1.6 mph /  2.6 km/h 53 % 0.0 in /  0 mm
21:57 25.8 °F /  -3.4 °C 15.8 °F /  -9 °C 1017.8 in /  34462.7 hPa Calm     54 % 0.0 in /  0 mm
22:07 25.3 °F /  -3.7 °C 15.6 °F /  -9.1 °C 1017.8 in /  34462.7 hPa Calm     55 % 0.0 in /  0 mm
22:12 25.1 °F /  -3.8 °C 15.7 °F /  -9.1 °C 1017.8 in /  34462.7 hPa Calm     56 % 0.0 in /  0 mm
22:17 25.1 °F /  -3.8 °C 15.7 °F /  -9.1 °C 1017.8 in /  34462.7 hPa North 1.6 mph /  2.6 km/h   56 % 0.0 in /  0 mm
22:22 25.0 °F /  -3.9 °C 15.6 °F /  -9.1 °C 1017.8 in /  34462.7 hPa Calm   1.6 mph /  2.6 km/h 56 % 0.0 in /  0 mm
22:27 24.8 °F /  -4 °C 15.7 °F /  -9.1 °C 1017.8 in /  34462.7 hPa NW 1.6 mph /  2.6 km/h 1.6 mph /  2.6 km/h 57 % 0.0 in /  0 mm
22:32 24.6 °F /  -4.1 °C 15.5 °F /  -9.2 °C 1017.8 in /  34462.7 hPa Calm   3.2 mph /  5.1 km/h 57 % 0.0 in /  0 mm
22:37 24.3 °F /  -4.3 °C 15.5 °F /  -9.2 °C 1017.8 in /  34462.7 hPa Calm   3.2 mph /  5.1 km/h 58 % 0.0 in /  0 mm
22:42 24.1 °F /  -4.4 °C 15.6 °F /  -9.1 °C 1017.8 in /  34462.7 hPa Calm   3.2 mph /  5.1 km/h 59 % 0.0 in /  0 mm
22:47 24.0 °F /  -4.4 °C 15.5 °F /  -9.2 °C 1017.8 in /  34462.7 hPa NNW 1.6 mph /  2.6 km/h   59 % 0.0 in /  0 mm
22:52 23.9 °F /  -4.5 °C 15.4 °F /  -9.2 °C 1017.8 in /  34462.7 hPa North 1.6 mph /  2.6 km/h 3.2 mph /  5.1 km/h 59 % 0.0 in /  0 mm
22:57 23.8 °F /  -4.6 °C 15.6 °F /  -9.1 °C 1017.8 in /  34462.7 hPa North 1.6 mph /  2.6 km/h 3.2 mph /  5.1 km/h 60 % 0.0 in /  0 mm
23:02 23.7 °F /  -4.6 °C 15.5 °F /  -9.2 °C 1017.8 in /  34462.7 hPa Calm   3.2 mph /  5.1 km/h 60 % 0.0 in /  0 mm
23:12 23.1 °F /  -4.9 °C 15.7 °F /  -9.1 °C 1017.8 in /  34462.7 hPa Calm   3.2 mph /  5.1 km/h 63 % 0.0 in /  0 mm
23:17 22.8 °F /  -5.1 °C 15.6 °F /  -9.1 °C 1017.8 in /  34462.7 hPa Calm   1.6 mph /  2.6 km/h 64 % 0.0 in /  0 mm
23:22 22.6 °F /  -5.2 °C 15.7 °F /  -9.1 °C 1017.8 in /  34462.7 hPa Calm   1.6 mph /  2.6 km/h 65 % 0.0 in /  0 mm
23:27 22.7 °F /  -5.2 °C 15.8 °F /  -9 °C 1017.8 in /  34462.7 hPa Calm   1.6 mph /  2.6 km/h 65 % 0.0 in /  0 mm
23:32 22.6 °F /  -5.2 °C 15.7 °F /  -9.1 °C 1017.8 in /  34462.7 hPa NNE 3.2 mph /  5.1 km/h 3.2 mph /  5.1 km/h 65 % 0.0 in /  0 mm
23:37 22.4 °F /  -5.3 °C 15.7 °F /  -9.1 °C 1017.8 in /  34462.7 hPa NNW 3.2 mph /  5.1 km/h 4.8 mph /  7.7 km/h 66 % 0.0 in /  0 mm
23:42 22.4 °F /  -5.3 °C 15.7 °F /  -9.1 °C 1017.8 in /  34462.7 hPa NW 1.6 mph /  2.6 km/h 4.8 mph /  7.7 km/h 66 % 0.0 in /  0 mm
23:47 22.5 °F /  -5.3 °C 15.8 °F /  -9 °C 1017.8 in /  34462.7 hPa Calm   4.8 mph /  7.7 km/h 66 % 0.0 in /  0 mm
23:52 22.3 °F /  -5.4 °C 15.6 °F /  -9.1 °C 1017.8 in /  34462.7 hPa Calm   4.8 mph /  7.7 km/h 66 % 0.0 in /  0 mm
23:57 22.2 °F /  -5.4 °C 15.8 °F /  -9 °C 1017.8 in /  34462.7 hPa Calm   4.8 mph /  7.7 km/h 67 % 0.0 in /  0 mm
Meteo18
Compliments of Weather Underground - 4 mb

Script developed by  Jim McMurry - jmcmurry@mwt.net Adapted for the template by  Wim van der Kuil - Leuven-Template.eu

You find our weather info also at:

European Weather Network

Weather Underground

Equipment we use:

Weather-station
Davis Vue

Weather-program
Meteobridge

Weather-server
Raspberry PI 2 B+

Provider
1 and 1

Davis Vue

Meteobridge

Raspberry PI 2 B+

1 and 1